createdAt,value
2023-01-25T00:00:42.418Z,102184.38
2023-01-25T00:05:45.426Z,102184.41
2023-01-25T00:10:52.323Z,102175.44
2023-01-25T00:16:02.472Z,102170.00
2023-01-25T00:21:13.433Z,102178.28
2023-01-25T00:26:16.488Z,102175.41
2023-01-25T00:31:28.240Z,102175.59
2023-01-25T00:36:40.680Z,102163.94
2023-01-25T00:41:44.470Z,102162.91
2023-01-25T00:46:48.756Z,102162.03
2023-01-25T00:51:51.882Z,102165.59
2023-01-25T00:56:56.537Z,102163.69
2023-01-25T01:02:01.311Z,102166.47
2023-01-25T01:07:05.153Z,102158.47
2023-01-25T01:12:08.094Z,102157.59
2023-01-25T01:17:12.253Z,102157.69
2023-01-25T01:22:15.913Z,102152.28
2023-01-25T01:27:18.999Z,102143.25
2023-01-25T01:32:23.259Z,102144.41
2023-01-25T01:37:27.586Z,102138.03
2023-01-25T01:42:30.832Z,102135.44
2023-01-25T01:47:45.818Z,102126.38
2023-01-25T01:52:51.482Z,102104.06
2023-01-25T01:57:59.019Z,102099.56
2023-01-25T02:03:03.618Z,102071.72
2023-01-25T02:08:10.376Z,102082.25
2023-01-25T02:13:13.395Z,102078.69
2023-01-25T02:18:18.997Z,102074.06
2023-01-25T02:23:30.538Z,102064.34
2023-01-25T02:28:39.525Z,102057.13
2023-01-25T02:33:42.316Z,102052.00
2023-01-25T02:38:51.240Z,102058.41
2023-01-25T02:43:55.494Z,102060.09
2023-01-25T02:48:59.704Z,102054.63
2023-01-25T02:54:06.642Z,102055.44
2023-01-25T02:59:13.468Z,102044.72
2023-01-25T03:04:19.930Z,102039.28
2023-01-25T03:09:23.975Z,102024.97
2023-01-25T03:14:28.484Z,102033.91
2023-01-25T03:19:31.344Z,102031.25
2023-01-25T03:24:34.425Z,102019.56
2023-01-25T03:29:40.674Z,102020.53
2023-01-25T03:34:48.139Z,102013.34
2023-01-25T03:39:52.036Z,102009.56
2023-01-25T03:44:57.875Z,102005.22
2023-01-25T03:50:00.720Z,101998.91
2023-01-25T03:55:03.715Z,102008.72
2023-01-25T04:00:12.838Z,102001.56
2023-01-25T04:05:21.090Z,102006.78
2023-01-25T04:10:24.137Z,102011.47
2023-01-25T04:15:28.460Z,102001.50
2023-01-25T04:20:36.631Z,102007.94
2023-01-25T04:25:39.953Z,101998.38
2023-01-25T04:30:49.474Z,101995.56
2023-01-25T04:35:53.717Z,101988.56
2023-01-25T04:40:56.605Z,101985.03
2023-01-25T04:46:02.360Z,101979.72
2023-01-25T04:51:09.412Z,101982.28
2023-01-25T04:56:12.373Z,101982.81
2023-01-25T05:01:28.188Z,101975.81
2023-01-25T05:06:31.279Z,101975.19
2023-01-25T05:11:34.182Z,101972.00
2023-01-25T05:16:54.188Z,101967.50
2023-01-25T05:22:01.184Z,101962.28
2023-01-25T05:27:10.194Z,101953.84
2023-01-25T05:32:37.517Z,101959.66
2023-01-25T05:37:40.463Z,101963.47
2023-01-25T05:42:54.912Z,101970.31
2023-01-25T05:48:00.934Z,101961.63
2023-01-25T05:53:03.778Z,101963.63
2023-01-25T05:58:06.651Z,101963.63
2023-01-25T06:03:11.104Z,101959.59
2023-01-25T06:08:15.578Z,101951.81
2023-01-25T06:13:26.834Z,101948.38
2023-01-25T06:18:32.514Z,101947.13
2023-01-25T06:23:55.608Z,101948.34
2023-01-25T06:28:58.595Z,101950.44
2023-01-25T06:34:06.169Z,101952.31
2023-01-25T06:39:09.187Z,101948.13
2023-01-25T06:44:12.167Z,101949.34
2023-01-25T06:49:16.378Z,101954.72
2023-01-25T06:54:19.411Z,101937.00
2023-01-25T06:59:22.239Z,101938.03
2023-01-25T07:04:26.331Z,101937.28
2023-01-25T07:09:29.094Z,101932.91
2023-01-25T07:14:32.155Z,101924.16
2023-01-25T07:19:36.344Z,101913.56
2023-01-25T07:24:39.164Z,101916.47
2023-01-25T07:29:41.951Z,101914.75
2023-01-25T07:34:46.215Z,101908.84
2023-01-25T07:39:50.584Z,101904.56
2023-01-25T07:44:53.411Z,101895.06
2023-01-25T07:49:57.567Z,101890.34
2023-01-25T07:55:00.371Z,101889.56
2023-01-25T08:00:04.079Z,101882.59
2023-01-25T08:05:16.532Z,101877.44
2023-01-25T08:10:19.587Z,101879.00
2023-01-25T08:15:22.740Z,101861.97
2023-01-25T08:20:26.995Z,101870.22
2023-01-25T08:25:29.747Z,101868.22
2023-01-25T08:30:32.621Z,101869.09
2023-01-25T08:35:37.220Z,101872.91
2023-01-25T08:40:40.077Z,101866.16
2023-01-25T08:45:42.822Z,101869.97
2023-01-25T08:50:49.997Z,101872.09
2023-01-25T08:55:52.774Z,101857.13
2023-01-25T09:00:55.641Z,101855.59
2023-01-25T09:06:00.145Z,101850.34
2023-01-25T09:11:03.619Z,101841.63
2023-01-25T09:16:09.885Z,101847.16
2023-01-25T09:21:16.087Z,101837.53
2023-01-25T09:26:19.595Z,101845.94
2023-01-25T09:31:24.111Z,101843.63
2023-01-25T09:36:54.601Z,101855.41
2023-01-25T09:42:15.488Z,101850.38
2023-01-25T09:47:30.735Z,101854.72
2023-01-25T09:52:58.107Z,101824.84
2023-01-25T09:58:04.116Z,101815.91
2023-01-25T10:03:16.727Z,101811.72
2023-01-25T10:08:29.187Z,101804.38
2023-01-25T10:13:32.071Z,101805.31
2023-01-25T10:18:41.894Z,101798.38
2023-01-25T10:24:04.695Z,101788.00
2023-01-25T10:29:13.907Z,101775.84
2023-01-25T10:34:20.265Z,101783.41
2023-01-25T10:39:24.867Z,101768.69
2023-01-25T10:44:29.353Z,101763.81
2023-01-25T10:49:41.057Z,101749.16
2023-01-25T10:54:46.131Z,101735.47
2023-01-25T10:59:52.423Z,101725.34
2023-01-25T11:04:55.271Z,101729.47
2023-01-25T11:09:59.722Z,101721.25
2023-01-25T11:15:26.296Z,101722.06
2023-01-25T11:20:29.145Z,101708.38
2023-01-25T11:25:34.919Z,101701.09
2023-01-25T11:30:37.757Z,101679.44
2023-01-25T11:35:51.085Z,101668.34
2023-01-25T11:41:02.525Z,101674.41
2023-01-25T11:46:18.079Z,101664.47
2023-01-25T11:51:27.485Z,101647.28
2023-01-25T11:56:48.594Z,101643.38
2023-01-25T12:02:08.463Z,101627.94
2023-01-25T12:07:21.521Z,101617.06
2023-01-25T12:12:38.039Z,101604.53
2023-01-25T12:17:57.073Z,101602.72
2023-01-25T12:23:32.403Z,101582.13
2023-01-25T12:28:44.168Z,101576.94
2023-01-25T12:33:52.091Z,101569.88
2023-01-25T12:39:00.378Z,101567.25
2023-01-25T12:44:12.528Z,101555.63
2023-01-25T12:49:22.313Z,101544.00
2023-01-25T12:54:32.348Z,101535.94
2023-01-25T12:59:47.638Z,101535.09
2023-01-25T13:05:00.932Z,101525.13
2023-01-25T13:10:14.882Z,101520.69
2023-01-25T13:15:38.283Z,101499.19
2023-01-25T13:20:53.075Z,101498.09
2023-01-25T13:26:37.677Z,101492.41
2023-01-25T13:31:52.700Z,101492.91
2023-01-25T13:36:57.305Z,101475.19
2023-01-25T13:42:00.840Z,101467.88
2023-01-25T13:47:08.533Z,101456.91
2023-01-25T13:52:17.172Z,101452.41
2023-01-25T13:57:23.281Z,101444.63
2023-01-25T14:02:28.948Z,101439.59
2023-01-25T14:07:34.724Z,101425.81
2023-01-25T14:12:40.231Z,101424.44
2023-01-25T14:17:44.853Z,101414.97
2023-01-25T14:22:51.707Z,101410.88
2023-01-25T14:27:56.761Z,101409.66
2023-01-25T14:33:03.317Z,101406.69
2023-01-25T14:38:22.524Z,101400.25
2023-01-25T14:43:27.594Z,101391.31
2023-01-25T14:48:40.473Z,101388.63
2023-01-25T14:53:47.676Z,101382.97
2023-01-25T14:58:58.970Z,101383.47
2023-01-25T15:04:04.440Z,101375.34
2023-01-25T15:09:27.361Z,101368.38
2023-01-25T15:14:30.626Z,101354.06
2023-01-25T15:19:35.295Z,101355.81
2023-01-25T15:24:40.561Z,101348.69
2023-01-25T15:29:45.151Z,101348.59
2023-01-25T15:34:49.775Z,101353.03
2023-01-25T15:39:53.707Z,101347.66
2023-01-25T15:44:56.773Z,101333.31
2023-01-25T15:50:00.933Z,101323.47
2023-01-25T15:55:03.840Z,101318.03
2023-01-25T16:00:08.215Z,101310.91
2023-01-25T16:05:12.950Z,101310.84
2023-01-25T16:10:24.057Z,101307.13
2023-01-25T16:15:27.107Z,101293.69
2023-01-25T16:20:31.788Z,101290.91
2023-01-25T16:25:34.551Z,101283.81
2023-01-25T16:30:37.462Z,101279.25
2023-01-25T16:35:41.722Z,101280.13
2023-01-25T16:40:44.666Z,101279.09
2023-01-25T16:45:47.590Z,101268.91
2023-01-25T16:50:53.150Z,101269.78
2023-01-25T16:55:55.928Z,101261.88
2023-01-25T17:00:58.795Z,101265.13
2023-01-25T17:06:02.981Z,101254.25
2023-01-25T17:11:07.474Z,101259.03
2023-01-25T17:16:10.293Z,101249.94
2023-01-25T17:21:16.797Z,101237.25
2023-01-25T17:26:21.319Z,101227.88
2023-01-25T17:31:27.489Z,101229.75
2023-01-25T17:36:31.951Z,101227.31
2023-01-25T17:41:35.043Z,101210.69
2023-01-25T17:46:38.385Z,101224.19
2023-01-25T17:51:42.626Z,101209.25
2023-01-25T17:56:45.471Z,101205.59
2023-01-25T18:01:48.336Z,101203.22
2023-01-25T18:06:52.514Z,101200.59
2023-01-25T18:11:55.225Z,101197.75
2023-01-25T18:16:58.151Z,101182.81
2023-01-25T18:22:02.246Z,101176.56
2023-01-25T18:27:07.847Z,101183.84
2023-01-25T18:32:10.620Z,101173.38
2023-01-25T18:37:21.703Z,101160.00
2023-01-25T18:42:26.234Z,101157.41
2023-01-25T18:47:29.111Z,101147.69
2023-01-25T18:52:33.203Z,101140.50
2023-01-25T18:57:35.974Z,101137.09
2023-01-25T19:02:38.842Z,101140.63
2023-01-25T19:07:42.940Z,101131.88
2023-01-25T19:12:45.726Z,101115.03
2023-01-25T19:17:48.453Z,101112.34
2023-01-25T19:22:54.451Z,101123.88
2023-01-25T19:27:57.281Z,101114.06
2023-01-25T19:33:00.171Z,101107.94
2023-01-25T19:38:04.483Z,101116.03
2023-01-25T19:43:07.344Z,101093.75
2023-01-25T19:48:10.113Z,101090.28
2023-01-25T19:53:14.393Z,101079.47
2023-01-25T19:58:17.223Z,101086.75
2023-01-25T20:03:20.016Z,101070.63
2023-01-25T20:08:24.180Z,101073.31
2023-01-25T20:13:27.207Z,101054.53
2023-01-25T20:18:32.212Z,101046.56
2023-01-25T20:23:38.696Z,101050.97
2023-01-25T20:28:42.809Z,101050.00
2023-01-25T20:33:45.759Z,101026.78
2023-01-25T20:38:50.168Z,101030.38
2023-01-25T20:43:57.056Z,101023.19
2023-01-25T20:48:59.800Z,101018.75
2023-01-25T20:54:04.098Z,101009.72
2023-01-25T20:59:06.967Z,101002.66
2023-01-25T21:04:11.405Z,100995.47
2023-01-25T21:09:15.678Z,100990.09
2023-01-25T21:14:19.426Z,100982.91
2023-01-25T21:19:22.179Z,100976.16
2023-01-25T21:24:26.357Z,100973.66
2023-01-25T21:29:29.294Z,100971.91
2023-01-25T21:34:33.515Z,100966.28
2023-01-25T21:39:37.747Z,100958.50
2023-01-25T21:44:58.104Z,100956.59
2023-01-25T21:50:18.181Z,100954.44
2023-01-25T21:55:22.518Z,100956.16
2023-01-25T22:00:25.256Z,100960.63
2023-01-25T22:05:28.068Z,100954.06
2023-01-25T22:10:32.245Z,100951.03
2023-01-25T22:15:35.030Z,100954.25
2023-01-25T22:20:37.871Z,100937.78
2023-01-25T22:25:41.993Z,100929.28
2023-01-25T22:30:44.841Z,100937.78
2023-01-25T22:35:47.690Z,100926.78
2023-01-25T22:40:51.836Z,100924.75
2023-01-25T22:45:54.723Z,100916.69
2023-01-25T22:51:02.027Z,100911.81
2023-01-25T22:56:08.596Z,100911.56
2023-01-25T23:01:12.603Z,100913.13
2023-01-25T23:06:18.413Z,100897.75
2023-01-25T23:11:24.476Z,100893.81
2023-01-25T23:16:27.309Z,100893.47
2023-01-25T23:21:30.720Z,100895.91
2023-01-25T23:26:38.996Z,100891.28
2023-01-25T23:31:41.938Z,100889.38
2023-01-25T23:36:44.916Z,100881.06
2023-01-25T23:41:51.459Z,100874.72
2023-01-25T23:46:54.279Z,100866.44
2023-01-25T23:51:57.056Z,100860.63
2023-01-25T23:57:01.222Z,100849.75
